createdAt,value
2017-01-01T00:00:10.646Z,16.20
2017-01-01T00:01:13.189Z,16.21
2017-01-01T00:02:12.114Z,16.24
2017-01-01T00:03:14.582Z,16.20
2017-01-01T00:04:13.662Z,16.20
2017-01-01T00:05:12.383Z,16.20
2017-01-01T00:06:12.345Z,16.20
2017-01-01T00:07:12.525Z,16.20
2017-01-01T00:08:12.589Z,16.20
2017-01-01T00:09:10.445Z,16.19
2017-01-01T00:10:11.721Z,16.20
2017-01-01T00:11:11.715Z,16.20
2017-01-01T00:12:11.670Z,16.20
2017-01-01T00:13:12.304Z,16.20
2017-01-01T00:14:12.846Z,16.21
2017-01-01T00:15:13.673Z,16.19
2017-01-01T00:16:12.384Z,16.18
2017-01-01T00:17:12.950Z,16.19
2017-01-01T00:18:13.664Z,16.72
2017-01-01T00:19:12.381Z,16.31
2017-01-01T00:20:13.238Z,16.21
2017-01-01T00:21:13.038Z,16.21
2017-01-01T00:22:12.149Z,16.20
2017-01-01T00:23:12.885Z,16.19
2017-01-01T00:24:12.154Z,16.20
2017-01-01T00:25:12.886Z,16.21
2017-01-01T00:26:12.421Z,16.23
2017-01-01T00:27:13.176Z,16.20
2017-01-01T00:28:12.183Z,16.19
2017-01-01T00:29:13.076Z,16.19
2017-01-01T00:30:12.862Z,16.19
2017-01-01T00:31:12.680Z,16.18
2017-01-01T00:32:12.148Z,16.24
2017-01-01T00:33:10.282Z,16.19
2017-01-01T00:34:13.092Z,16.19
2017-01-01T00:35:12.638Z,16.19
2017-01-01T00:36:11.719Z,16.19
2017-01-01T00:37:11.869Z,16.19
2017-01-01T00:38:11.973Z,16.19
2017-01-01T00:39:12.612Z,16.19
2017-01-01T00:40:12.218Z,16.19
2017-01-01T00:41:13.115Z,16.19
2017-01-01T00:42:12.545Z,16.21
2017-01-01T00:43:11.222Z,16.17
2017-01-01T00:44:12.571Z,16.23
2017-01-01T00:45:11.703Z,16.19
2017-01-01T00:46:13.260Z,16.18
2017-01-01T00:47:13.066Z,16.18
2017-01-01T00:48:15.449Z,16.19
2017-01-01T00:49:13.289Z,16.18
2017-01-01T00:50:14.264Z,16.19
2017-01-01T00:51:12.918Z,16.18
2017-01-01T00:52:12.755Z,16.18
2017-01-01T00:53:11.831Z,16.18
2017-01-01T00:54:10.694Z,16.18
2017-01-01T00:55:12.548Z,16.72
2017-01-01T00:56:12.464Z,16.76
2017-01-01T00:57:15.341Z,16.80
2017-01-01T00:58:12.481Z,16.80
2017-01-01T00:59:12.482Z,16.82
2017-01-01T01:00:13.042Z,16.84
2017-01-01T01:01:12.811Z,16.83
2017-01-01T01:02:13.599Z,16.47
2017-01-01T01:03:12.183Z,16.30
2017-01-01T01:04:12.612Z,16.24
2017-01-01T01:05:12.559Z,16.22
2017-01-01T01:06:12.609Z,16.21
2017-01-01T01:07:13.391Z,16.21
2017-01-01T01:08:17.304Z,16.18
2017-01-01T01:09:15.401Z,16.19
2017-01-01T01:10:13.860Z,16.19
2017-01-01T01:11:13.864Z,16.19
2017-01-01T01:12:13.523Z,16.19
2017-01-01T01:13:12.558Z,16.18
2017-01-01T01:14:13.690Z,16.18
2017-01-01T01:15:12.434Z,16.18
2017-01-01T01:16:12.430Z,16.19
2017-01-01T01:17:12.597Z,16.18
2017-01-01T01:18:11.706Z,16.18
2017-01-01T01:19:11.953Z,16.19
2017-01-01T01:20:12.560Z,16.18
2017-01-01T01:21:11.552Z,16.18
2017-01-01T01:22:13.642Z,16.18
2017-01-01T01:23:12.784Z,16.21
2017-01-01T01:24:12.631Z,16.17
2017-01-01T01:25:11.755Z,16.17
2017-01-01T01:26:11.827Z,16.17
2017-01-01T01:27:10.809Z,16.17
2017-01-01T01:28:13.671Z,16.17
2017-01-01T01:29:12.732Z,16.17
2017-01-01T01:30:10.813Z,16.16
2017-01-01T01:31:11.683Z,16.72
2017-01-01T01:32:12.371Z,16.76
2017-01-01T01:33:14.264Z,16.78
2017-01-01T01:34:13.504Z,16.81
2017-01-01T01:35:12.321Z,16.80
2017-01-01T01:36:12.433Z,16.82
2017-01-01T01:37:12.444Z,16.81
2017-01-01T01:38:13.414Z,16.80
2017-01-01T01:39:14.285Z,16.29
2017-01-01T01:40:13.069Z,16.24
2017-01-01T01:41:13.669Z,16.20
2017-01-01T01:42:12.248Z,16.19
2017-01-01T01:43:13.871Z,16.18
2017-01-01T01:44:12.679Z,16.17
2017-01-01T01:45:11.668Z,16.18
2017-01-01T01:46:10.625Z,16.16
2017-01-01T01:47:12.179Z,16.70
2017-01-01T01:48:13.583Z,16.77
2017-01-01T01:49:11.636Z,16.79
2017-01-01T01:50:11.664Z,16.79
2017-01-01T01:51:12.372Z,16.81
2017-01-01T01:52:13.238Z,16.82
2017-01-01T01:53:12.925Z,16.82
2017-01-01T01:54:13.671Z,16.83
2017-01-01T01:55:13.106Z,16.48
2017-01-01T01:56:12.913Z,16.29
2017-01-01T01:57:12.561Z,16.23
2017-01-01T01:58:11.648Z,16.21
2017-01-01T01:59:12.232Z,16.19
2017-01-01T02:00:12.561Z,16.20
2017-01-01T02:01:11.764Z,16.17
2017-01-01T02:02:12.917Z,16.16
2017-01-01T02:03:11.962Z,16.16
2017-01-01T02:04:12.646Z,16.16
2017-01-01T02:05:12.592Z,16.17
2017-01-01T02:06:08.812Z,16.15
2017-01-01T02:07:12.598Z,16.16
2017-01-01T02:08:11.603Z,16.15
2017-01-01T02:09:14.522Z,16.16
2017-01-01T02:10:12.955Z,16.21
2017-01-01T02:11:12.485Z,16.19
2017-01-01T02:12:12.602Z,16.15
2017-01-01T02:13:12.343Z,16.15
2017-01-01T02:14:14.872Z,16.15
2017-01-01T02:15:13.462Z,16.16
2017-01-01T02:16:13.272Z,16.15
2017-01-01T02:17:13.097Z,16.13
2017-01-01T02:18:13.645Z,16.14
2017-01-01T02:19:13.272Z,16.12
2017-01-01T02:20:12.213Z,16.12
2017-01-01T02:21:12.744Z,16.18
2017-01-01T02:22:12.324Z,16.14
2017-01-01T02:23:12.547Z,16.11
2017-01-01T02:24:13.440Z,16.13
2017-01-01T02:25:12.858Z,16.13
2017-01-01T02:26:13.338Z,16.15
2017-01-01T02:27:14.025Z,16.19
2017-01-01T02:28:12.042Z,16.15
2017-01-01T02:29:12.541Z,16.22
2017-01-01T02:30:13.199Z,16.15
2017-01-01T02:31:09.563Z,16.16
2017-01-01T02:32:10.553Z,16.15
2017-01-01T02:33:12.572Z,16.70
2017-01-01T02:34:10.695Z,16.75
2017-01-01T02:35:12.531Z,16.79
2017-01-01T02:36:11.222Z,16.80
2017-01-01T02:37:12.604Z,16.80
2017-01-01T02:38:10.316Z,16.81
2017-01-01T02:39:13.131Z,16.46
2017-01-01T02:40:13.013Z,16.29
2017-01-01T02:41:12.900Z,16.24
2017-01-01T02:42:13.985Z,16.21
2017-01-01T02:43:12.050Z,16.20
2017-01-01T02:44:12.963Z,16.19
2017-01-01T02:45:12.648Z,16.17
2017-01-01T02:46:12.432Z,16.18
2017-01-01T02:47:12.575Z,16.18
2017-01-01T02:48:09.562Z,16.16
2017-01-01T02:49:12.209Z,16.17
2017-01-01T02:50:12.187Z,16.18
2017-01-01T02:51:12.995Z,16.17
2017-01-01T02:52:12.143Z,16.17
2017-01-01T02:53:12.301Z,16.17
2017-01-01T02:54:12.502Z,16.16
2017-01-01T02:55:13.607Z,16.23
2017-01-01T02:56:10.561Z,16.16
2017-01-01T02:57:11.934Z,16.16
2017-01-01T02:58:12.823Z,16.17
2017-01-01T02:59:12.005Z,16.17
2017-01-01T03:00:12.812Z,16.17
2017-01-01T03:01:11.793Z,16.16
2017-01-01T03:02:12.521Z,16.17
2017-01-01T03:03:12.505Z,16.17
2017-01-01T03:04:12.669Z,16.16
2017-01-01T03:05:13.053Z,16.19
2017-01-01T03:06:12.129Z,16.17
2017-01-01T03:07:12.849Z,16.20
2017-01-01T03:08:12.023Z,16.70
2017-01-01T03:09:12.199Z,16.42
2017-01-01T03:10:12.359Z,16.25
2017-01-01T03:11:12.393Z,16.21
2017-01-01T03:12:13.303Z,16.19
2017-01-01T03:13:12.610Z,16.19
2017-01-01T03:14:12.253Z,16.24
2017-01-01T03:15:12.512Z,16.18
2017-01-01T03:16:12.700Z,16.18
2017-01-01T03:17:12.692Z,16.18
2017-01-01T03:18:11.772Z,16.17
2017-01-01T03:19:13.734Z,16.18
2017-01-01T03:20:12.453Z,16.18
2017-01-01T03:21:12.512Z,16.17
2017-01-01T03:22:12.555Z,16.18
2017-01-01T03:23:12.502Z,16.18
2017-01-01T03:24:12.461Z,16.18
2017-01-01T03:25:15.040Z,16.17
2017-01-01T03:26:13.209Z,16.17
2017-01-01T03:27:12.311Z,16.17
2017-01-01T03:28:12.447Z,16.17
2017-01-01T03:29:14.973Z,16.17
2017-01-01T03:30:12.502Z,16.24
2017-01-01T03:31:13.283Z,16.19
2017-01-01T03:32:11.209Z,16.16
2017-01-01T03:33:12.393Z,16.17
2017-01-01T03:34:12.340Z,16.17
2017-01-01T03:35:12.299Z,16.17
2017-01-01T03:36:10.837Z,16.17
2017-01-01T03:37:09.665Z,16.69
2017-01-01T03:38:13.697Z,16.76
2017-01-01T03:39:11.723Z,16.79
2017-01-01T03:40:12.315Z,16.80
2017-01-01T03:41:13.242Z,16.80
2017-01-01T03:42:13.024Z,16.81
2017-01-01T03:43:13.045Z,16.83
2017-01-01T03:44:10.231Z,16.81
2017-01-01T03:45:12.773Z,16.84
2017-01-01T03:46:12.466Z,16.84
2017-01-01T03:47:13.461Z,16.83
2017-01-01T03:48:14.369Z,16.81
2017-01-01T03:49:09.720Z,16.83
2017-01-01T03:50:11.807Z,16.84
2017-01-01T03:51:12.842Z,16.53
2017-01-01T03:52:12.980Z,16.30
2017-01-01T03:53:12.049Z,16.25
2017-01-01T03:54:13.866Z,16.21
2017-01-01T03:55:12.804Z,16.20
2017-01-01T03:56:11.910Z,16.19
2017-01-01T03:57:12.105Z,16.19
2017-01-01T03:58:12.889Z,16.18
2017-01-01T03:59:13.068Z,16.17
2017-01-01T04:00:12.832Z,16.16
2017-01-01T04:01:11.977Z,16.34
2017-01-01T04:02:11.939Z,16.22
2017-01-01T04:03:12.002Z,16.20
2017-01-01T04:04:12.707Z,16.18
2017-01-01T04:05:11.680Z,16.18
2017-01-01T04:06:12.639Z,16.18
2017-01-01T04:07:12.408Z,16.18
2017-01-01T04:08:16.145Z,16.16
2017-01-01T04:09:11.166Z,16.15
2017-01-01T04:10:12.918Z,16.20
2017-01-01T04:11:12.043Z,16.16
2017-01-01T04:12:12.165Z,16.16
2017-01-01T04:13:12.199Z,16.16
2017-01-01T04:14:12.254Z,16.16
2017-01-01T04:15:12.574Z,16.20
2017-01-01T04:16:12.107Z,16.19
2017-01-01T04:17:14.106Z,16.15
2017-01-01T04:18:13.713Z,16.16
2017-01-01T04:19:12.599Z,16.17
2017-01-01T04:20:11.583Z,16.16
2017-01-01T04:21:11.716Z,16.16
2017-01-01T04:22:12.570Z,16.18
2017-01-01T04:23:12.807Z,16.71
2017-01-01T04:24:12.508Z,16.75
2017-01-01T04:25:12.527Z,16.78
2017-01-01T04:26:13.606Z,16.79
2017-01-01T04:27:12.488Z,16.81
2017-01-01T04:28:13.145Z,16.80
2017-01-01T04:29:12.836Z,16.81
2017-01-01T04:30:12.409Z,16.81
2017-01-01T04:31:13.385Z,16.30
2017-01-01T04:32:12.457Z,16.23
2017-01-01T04:33:13.048Z,16.20
2017-01-01T04:34:13.676Z,16.17
2017-01-01T04:35:12.697Z,16.14
2017-01-01T04:36:11.720Z,16.13
2017-01-01T04:37:12.686Z,16.12
2017-01-01T04:38:11.878Z,16.10
2017-01-01T04:39:11.948Z,16.10
2017-01-01T04:40:12.508Z,16.14
2017-01-01T04:41:13.179Z,16.09
2017-01-01T04:42:12.461Z,16.09
2017-01-01T04:43:11.424Z,16.08
2017-01-01T04:44:13.307Z,16.15
2017-01-01T04:45:12.881Z,16.08
2017-01-01T04:46:12.540Z,16.07
2017-01-01T04:47:12.345Z,16.09
2017-01-01T04:48:12.300Z,16.07
2017-01-01T04:49:13.046Z,16.07
2017-01-01T04:50:13.661Z,16.07
2017-01-01T04:51:11.775Z,16.08
2017-01-01T04:52:12.809Z,16.07
2017-01-01T04:53:13.881Z,16.07
2017-01-01T04:54:11.998Z,16.06
2017-01-01T04:55:11.993Z,16.07
2017-01-01T04:56:12.841Z,16.07
2017-01-01T04:57:11.892Z,16.07
2017-01-01T04:58:11.909Z,16.07
2017-01-01T04:59:10.680Z,16.06
2017-01-01T05:00:12.228Z,16.10
2017-01-01T05:01:12.601Z,16.11
2017-01-01T05:02:13.643Z,16.07
2017-01-01T05:03:13.583Z,16.07
2017-01-01T05:04:12.591Z,16.07
2017-01-01T05:05:11.779Z,16.07
2017-01-01T05:06:14.101Z,16.06
2017-01-01T05:07:12.890Z,16.06
2017-01-01T05:08:15.339Z,16.06
2017-01-01T05:09:12.728Z,16.13
2017-01-01T05:10:12.527Z,16.06
2017-01-01T05:11:13.271Z,16.06
2017-01-01T05:12:13.312Z,16.06
2017-01-01T05:13:13.109Z,16.06
2017-01-01T05:14:12.183Z,16.06
2017-01-01T05:15:12.751Z,16.10
2017-01-01T05:16:11.875Z,16.06
2017-01-01T05:17:13.676Z,16.06
2017-01-01T05:18:11.689Z,16.07
2017-01-01T05:19:14.322Z,16.06
2017-01-01T05:20:14.559Z,16.06
2017-01-01T05:21:12.433Z,16.05
2017-01-01T05:22:12.739Z,16.10
2017-01-01T05:23:12.276Z,16.11
2017-01-01T05:24:12.288Z,16.06
2017-01-01T05:25:16.369Z,16.07
2017-01-01T05:26:12.027Z,16.07
2017-01-01T05:27:12.660Z,16.06
2017-01-01T05:28:12.545Z,16.06
2017-01-01T05:29:12.629Z,16.06
2017-01-01T05:30:11.563Z,16.07
2017-01-01T05:31:10.442Z,16.06
2017-01-01T05:32:11.112Z,16.06
2017-01-01T05:33:12.705Z,16.10
2017-01-01T05:34:12.458Z,16.07
2017-01-01T05:35:13.321Z,16.07
2017-01-01T05:36:13.179Z,16.07
2017-01-01T05:37:12.355Z,16.07
2017-01-01T05:38:13.022Z,16.08
2017-01-01T05:39:13.383Z,16.07
2017-01-01T05:40:12.938Z,16.09
2017-01-01T05:41:11.832Z,16.06
2017-01-01T05:42:11.832Z,16.06
2017-01-01T05:43:12.547Z,16.06
2017-01-01T05:44:13.514Z,16.06
2017-01-01T05:45:13.061Z,16.06
2017-01-01T05:46:12.220Z,16.06
2017-01-01T05:47:13.840Z,16.05
2017-01-01T05:48:11.915Z,16.06
2017-01-01T05:49:12.012Z,16.05
2017-01-01T05:50:12.127Z,16.06
2017-01-01T05:51:12.241Z,16.06
2017-01-01T05:52:14.091Z,16.06
2017-01-01T05:53:12.491Z,16.09
2017-01-01T05:54:13.262Z,16.06
2017-01-01T05:55:12.307Z,16.05
2017-01-01T05:56:12.431Z,16.05
2017-01-01T05:57:13.198Z,16.06
2017-01-01T05:58:12.960Z,16.06
2017-01-01T05:59:13.089Z,16.05
2017-01-01T06:00:12.671Z,16.05
2017-01-01T06:01:11.648Z,16.04
2017-01-01T06:02:12.030Z,16.10
2017-01-01T06:03:14.486Z,16.05
2017-01-01T06:04:13.202Z,16.04
2017-01-01T06:05:13.456Z,16.04
2017-01-01T06:06:12.436Z,16.05
2017-01-01T06:07:14.830Z,16.04
2017-01-01T06:08:13.682Z,16.04
2017-01-01T06:09:10.600Z,16.05
2017-01-01T06:10:14.153Z,16.04
2017-01-01T06:11:12.309Z,16.05
2017-01-01T06:12:12.360Z,16.06
2017-01-01T06:13:13.446Z,16.04
2017-01-01T06:14:12.463Z,16.05
2017-01-01T06:15:13.014Z,16.05
2017-01-01T06:16:12.535Z,16.09
2017-01-01T06:17:13.108Z,16.12
2017-01-01T06:18:12.768Z,16.59
2017-01-01T06:19:11.815Z,16.63
2017-01-01T06:20:11.864Z,16.66
2017-01-01T06:21:13.002Z,16.68
2017-01-01T06:22:12.122Z,16.69
2017-01-01T06:23:12.674Z,16.69
2017-01-01T06:24:12.626Z,16.70
2017-01-01T06:25:11.658Z,16.71
2017-01-01T06:26:12.330Z,16.70
2017-01-01T06:27:12.296Z,16.70
2017-01-01T06:28:12.723Z,16.69
2017-01-01T06:29:12.538Z,16.69
2017-01-01T06:30:12.632Z,16.71
2017-01-01T06:31:11.674Z,16.70
2017-01-01T06:32:11.703Z,16.71
2017-01-01T06:33:11.734Z,16.71
2017-01-01T06:34:11.740Z,16.70
2017-01-01T06:35:12.179Z,16.69
2017-01-01T06:36:12.849Z,16.70
2017-01-01T06:37:12.012Z,16.69
2017-01-01T06:38:13.673Z,16.16
2017-01-01T06:39:12.725Z,16.10
2017-01-01T06:40:12.450Z,16.08
2017-01-01T06:41:12.625Z,16.08
2017-01-01T06:42:11.771Z,16.06
2017-01-01T06:43:13.734Z,16.05
2017-01-01T06:44:12.198Z,16.10
2017-01-01T06:45:12.245Z,16.04
2017-01-01T06:46:12.820Z,16.05
2017-01-01T06:47:11.777Z,16.05
2017-01-01T06:48:13.383Z,16.04
2017-01-01T06:49:12.754Z,16.08
2017-01-01T06:50:11.793Z,16.04
2017-01-01T06:51:12.003Z,16.05
2017-01-01T06:52:12.522Z,16.04
2017-01-01T06:53:12.553Z,16.05
2017-01-01T06:54:12.127Z,16.10
2017-01-01T06:55:12.113Z,16.04
2017-01-01T06:56:10.582Z,16.03
2017-01-01T06:57:13.677Z,16.57
2017-01-01T06:58:11.619Z,16.62
2017-01-01T06:59:13.118Z,16.66
2017-01-01T07:00:12.248Z,16.13
2017-01-01T07:01:12.994Z,16.08
2017-01-01T07:02:11.016Z,16.05
2017-01-01T07:03:12.813Z,16.58
2017-01-01T07:04:12.352Z,16.63
2017-01-01T07:05:13.196Z,16.65
2017-01-01T07:06:13.947Z,16.13
2017-01-01T07:07:12.603Z,16.09
2017-01-01T07:08:12.311Z,16.06
2017-01-01T07:09:12.656Z,16.10
2017-01-01T07:10:12.067Z,16.05
2017-01-01T07:11:12.957Z,16.04
2017-01-01T07:12:13.467Z,16.04
2017-01-01T07:13:12.430Z,16.04
2017-01-01T07:14:13.673Z,16.03
2017-01-01T07:15:12.508Z,16.03
2017-01-01T07:16:15.413Z,16.02
2017-01-01T07:17:12.648Z,16.04
2017-01-01T07:18:11.610Z,16.03
2017-01-01T07:19:12.340Z,16.03
2017-01-01T07:20:12.976Z,16.02
2017-01-01T07:21:13.854Z,16.03
2017-01-01T07:22:11.968Z,16.02
2017-01-01T07:23:12.545Z,16.03
2017-01-01T07:24:12.527Z,16.03
2017-01-01T07:25:13.055Z,16.03
2017-01-01T07:26:15.807Z,16.02
2017-01-01T07:27:14.043Z,16.02
2017-01-01T07:28:12.065Z,16.03
2017-01-01T07:29:12.722Z,16.02
2017-01-01T07:30:12.450Z,16.04
2017-01-01T07:31:12.445Z,16.03
2017-01-01T07:32:12.877Z,16.08
2017-01-01T07:33:12.687Z,16.03
2017-01-01T07:34:12.452Z,16.02
2017-01-01T07:35:12.769Z,16.10
2017-01-01T07:36:12.582Z,16.57
2017-01-01T07:37:13.315Z,16.63
2017-01-01T07:38:14.155Z,16.11
2017-01-01T07:39:13.836Z,16.06
2017-01-01T07:40:11.776Z,16.04
2017-01-01T07:41:10.676Z,16.04
2017-01-01T07:42:11.763Z,16.21
2017-01-01T07:43:11.833Z,16.07
2017-01-01T07:44:12.528Z,16.08
2017-01-01T07:45:12.639Z,16.04
2017-01-01T07:46:11.792Z,16.04
2017-01-01T07:47:11.896Z,16.04
2017-01-01T07:48:12.490Z,16.06
2017-01-01T07:49:12.362Z,16.03
2017-01-01T07:50:12.360Z,16.03
2017-01-01T07:51:15.071Z,16.02
2017-01-01T07:52:13.692Z,16.02
2017-01-01T07:53:12.351Z,16.02
2017-01-01T07:54:14.054Z,16.02
2017-01-01T07:55:11.967Z,16.03
2017-01-01T07:56:12.746Z,16.02
2017-01-01T07:57:11.786Z,16.02
2017-01-01T07:58:11.901Z,16.03
2017-01-01T07:59:12.461Z,16.05
2017-01-01T08:00:12.512Z,16.02
2017-01-01T08:01:12.226Z,16.02
2017-01-01T08:02:12.987Z,16.02
2017-01-01T08:03:13.678Z,16.01
2017-01-01T08:04:12.282Z,16.06
2017-01-01T08:05:12.706Z,16.05
2017-01-01T08:06:11.887Z,16.01
2017-01-01T08:07:11.917Z,16.02
2017-01-01T08:08:12.075Z,16.02
2017-01-01T08:09:13.887Z,16.01
2017-01-01T08:10:10.670Z,16.01
2017-01-01T08:11:11.946Z,16.02
2017-01-01T08:12:11.909Z,16.02
2017-01-01T08:13:10.740Z,16.02
2017-01-01T08:14:12.400Z,16.56
2017-01-01T08:15:12.380Z,16.61
2017-01-01T08:16:12.454Z,16.64
2017-01-01T08:17:12.653Z,16.66
2017-01-01T08:18:11.744Z,16.65
2017-01-01T08:19:12.525Z,16.68
2017-01-01T08:20:13.367Z,16.68
2017-01-01T08:21:13.201Z,16.68
2017-01-01T08:22:12.945Z,16.67
2017-01-01T08:23:12.725Z,16.15
2017-01-01T08:24:12.348Z,16.12
2017-01-01T08:25:12.456Z,16.08
2017-01-01T08:26:12.580Z,16.05
2017-01-01T08:27:11.622Z,16.04
2017-01-01T08:28:11.611Z,16.05
2017-01-01T08:29:12.477Z,16.04
2017-01-01T08:30:13.120Z,16.03
2017-01-01T08:31:12.082Z,16.04
2017-01-01T08:32:12.163Z,16.02
2017-01-01T08:33:12.300Z,16.03
2017-01-01T08:34:12.304Z,16.03
2017-01-01T08:35:13.043Z,16.03
2017-01-01T08:36:12.756Z,16.04
2017-01-01T08:37:12.185Z,16.06
2017-01-01T08:38:12.692Z,16.08
2017-01-01T08:39:13.840Z,16.58
2017-01-01T08:40:11.874Z,16.64
2017-01-01T08:41:12.839Z,16.68
2017-01-01T08:42:12.731Z,16.71
2017-01-01T08:43:11.614Z,16.19
2017-01-01T08:44:11.620Z,16.14
2017-01-01T08:45:11.498Z,16.11
2017-01-01T08:46:12.469Z,16.11
2017-01-01T08:47:13.034Z,16.10
2017-01-01T08:48:12.695Z,16.13
2017-01-01T08:49:12.299Z,16.10
2017-01-01T08:50:13.042Z,16.10
2017-01-01T08:51:12.385Z,16.13
2017-01-01T08:52:13.680Z,16.10
2017-01-01T08:53:13.335Z,16.11
2017-01-01T08:54:12.836Z,16.11
2017-01-01T08:55:13.127Z,16.13
2017-01-01T08:56:12.291Z,16.13
2017-01-01T08:57:12.385Z,16.11
2017-01-01T08:58:13.033Z,16.14
2017-01-01T08:59:12.743Z,16.11
2017-01-01T09:00:11.788Z,16.11
2017-01-01T09:01:11.928Z,16.11
2017-01-01T09:02:12.042Z,16.11
2017-01-01T09:03:13.861Z,16.11
2017-01-01T09:04:11.938Z,16.12
2017-01-01T09:05:13.676Z,16.11
2017-01-01T09:06:13.325Z,16.11
2017-01-01T09:07:15.299Z,16.12
2017-01-01T09:08:12.600Z,16.17
2017-01-01T09:09:12.622Z,16.13
2017-01-01T09:10:12.148Z,16.19
2017-01-01T09:11:12.887Z,16.16
2017-01-01T09:12:12.402Z,16.66
2017-01-01T09:13:11.577Z,16.71
2017-01-01T09:14:13.003Z,16.74
2017-01-01T09:15:12.494Z,16.28
2017-01-01T09:16:14.248Z,16.19
2017-01-01T09:17:14.025Z,16.16
2017-01-01T09:18:12.883Z,16.16
2017-01-01T09:19:12.402Z,16.14
2017-01-01T09:20:11.250Z,16.14
2017-01-01T09:21:12.454Z,16.14
2017-01-01T09:22:12.322Z,16.14
2017-01-01T09:23:13.576Z,16.15
2017-01-01T09:24:12.615Z,16.15
2017-01-01T09:25:11.550Z,16.14
2017-01-01T09:26:11.598Z,16.14
2017-01-01T09:27:11.888Z,16.16
2017-01-01T09:28:11.802Z,16.14
2017-01-01T09:29:11.930Z,16.14
2017-01-01T09:30:12.447Z,16.17
2017-01-01T09:31:12.582Z,16.14
2017-01-01T09:32:11.362Z,16.14
2017-01-01T09:33:12.986Z,16.14
2017-01-01T09:34:12.543Z,16.14
2017-01-01T09:35:11.498Z,16.13
2017-01-01T09:36:13.209Z,16.68
2017-01-01T09:37:12.327Z,16.21
2017-01-01T09:38:12.924Z,16.18
2017-01-01T09:39:12.924Z,16.16
2017-01-01T09:40:12.562Z,16.16
2017-01-01T09:41:11.852Z,16.16
2017-01-01T09:42:11.955Z,16.16
2017-01-01T09:43:12.118Z,16.15
2017-01-01T09:44:13.663Z,16.15
2017-01-01T09:45:12.477Z,16.15
2017-01-01T09:46:14.044Z,16.17
2017-01-01T09:47:12.120Z,16.14
2017-01-01T09:48:14.440Z,16.15
2017-01-01T09:49:12.241Z,16.16
2017-01-01T09:50:12.646Z,16.21
2017-01-01T09:51:12.473Z,16.16
2017-01-01T09:52:09.808Z,16.15
2017-01-01T09:53:11.734Z,16.16
2017-01-01T09:54:12.895Z,16.20
2017-01-01T09:55:12.786Z,16.17
2017-01-01T09:56:12.750Z,16.18
2017-01-01T09:57:11.896Z,16.16
2017-01-01T09:58:11.899Z,16.17
2017-01-01T09:59:13.510Z,16.16
2017-01-01T10:00:12.165Z,16.22
2017-01-01T10:01:12.096Z,16.16
2017-01-01T10:02:12.298Z,16.18
2017-01-01T10:03:12.366Z,16.17
2017-01-01T10:04:12.529Z,16.17
2017-01-01T10:05:13.139Z,16.17
2017-01-01T10:06:12.298Z,16.17
2017-01-01T10:07:12.996Z,16.19
2017-01-01T10:08:12.301Z,16.17
2017-01-01T10:09:13.393Z,16.17
2017-01-01T10:10:14.384Z,16.18
2017-01-01T10:11:12.683Z,16.21
2017-01-01T10:12:12.680Z,16.18
2017-01-01T10:13:11.713Z,16.18
2017-01-01T10:14:11.982Z,16.17
2017-01-01T10:15:11.924Z,16.17
2017-01-01T10:16:13.736Z,16.20
2017-01-01T10:17:13.451Z,16.72
2017-01-01T10:18:11.170Z,16.75
2017-01-01T10:19:11.491Z,16.48
2017-01-01T10:20:13.149Z,16.29
2017-01-01T10:21:12.817Z,16.22
2017-01-01T10:22:11.862Z,16.21
2017-01-01T10:23:12.677Z,16.19
2017-01-01T10:24:12.983Z,16.19
2017-01-01T10:25:11.956Z,16.19
2017-01-01T10:26:13.657Z,16.18
2017-01-01T10:27:12.226Z,16.22
2017-01-01T10:28:12.743Z,16.22
2017-01-01T10:29:11.516Z,16.18
2017-01-01T10:30:11.570Z,16.17
2017-01-01T10:31:12.269Z,16.18
2017-01-01T10:32:12.963Z,16.18
2017-01-01T10:33:12.538Z,16.19
2017-01-01T10:34:13.337Z,16.18
2017-01-01T10:35:13.244Z,16.19
2017-01-01T10:36:12.937Z,16.18
2017-01-01T10:37:14.754Z,16.20
2017-01-01T10:38:12.389Z,16.21
2017-01-01T10:39:14.668Z,16.17
2017-01-01T10:40:12.208Z,16.21
2017-01-01T10:41:12.168Z,16.19
2017-01-01T10:42:12.416Z,16.21
2017-01-01T10:43:12.863Z,16.23
2017-01-01T10:44:13.520Z,16.18
2017-01-01T10:45:13.269Z,16.18
2017-01-01T10:46:13.063Z,16.18
2017-01-01T10:47:12.117Z,16.18
2017-01-01T10:48:13.657Z,16.18
2017-01-01T10:49:11.762Z,16.18
2017-01-01T10:50:11.679Z,16.19
2017-01-01T10:51:12.466Z,16.18
2017-01-01T10:52:12.340Z,16.17
2017-01-01T10:53:13.089Z,16.17
2017-01-01T10:54:13.148Z,16.16
2017-01-01T10:55:12.647Z,16.22
2017-01-01T10:56:12.208Z,16.17
2017-01-01T10:57:15.118Z,16.15
2017-01-01T10:58:11.820Z,16.14
2017-01-01T10:59:13.837Z,16.14
2017-01-01T11:00:13.624Z,16.13
2017-01-01T11:01:10.545Z,16.11
2017-01-01T11:02:11.688Z,16.65
2017-01-01T11:03:12.336Z,16.70
2017-01-01T11:04:12.234Z,16.72
2017-01-01T11:05:12.829Z,16.73
2017-01-01T11:06:12.297Z,16.73
2017-01-01T11:07:13.128Z,16.19
2017-01-01T11:08:12.318Z,16.15
2017-01-01T11:09:13.793Z,16.13
2017-01-01T11:10:11.832Z,16.10
2017-01-01T11:11:12.699Z,16.12
2017-01-01T11:12:11.935Z,16.10
2017-01-01T11:13:12.824Z,16.11
2017-01-01T11:14:12.096Z,16.16
2017-01-01T11:15:13.652Z,16.12
2017-01-01T11:16:11.712Z,16.13
2017-01-01T11:17:12.576Z,16.18
2017-01-01T11:18:12.423Z,16.14
2017-01-01T11:19:12.578Z,16.15
2017-01-01T11:20:12.286Z,16.15
2017-01-01T11:21:12.406Z,16.15
2017-01-01T11:22:16.004Z,16.16
2017-01-01T11:23:12.288Z,16.17
2017-01-01T11:24:16.052Z,16.18
2017-01-01T11:25:12.431Z,16.22
2017-01-01T11:26:10.446Z,16.19
2017-01-01T11:27:11.612Z,16.19
2017-01-01T11:28:10.581Z,16.19
2017-01-01T11:29:10.713Z,16.17
2017-01-01T11:30:12.432Z,16.74
2017-01-01T11:31:13.330Z,16.29
2017-01-01T11:32:12.495Z,16.27
2017-01-01T11:33:12.422Z,16.26
2017-01-01T11:34:12.973Z,16.31
2017-01-01T11:35:11.754Z,16.26
2017-01-01T11:36:12.318Z,16.26
2017-01-01T11:37:13.077Z,16.26
2017-01-01T11:38:09.775Z,16.25
2017-01-01T11:39:13.646Z,16.26
2017-01-01T11:40:12.156Z,16.31
2017-01-01T11:41:12.259Z,16.27
2017-01-01T11:42:12.309Z,16.26
2017-01-01T11:43:12.838Z,16.26
2017-01-01T11:44:12.585Z,16.27
2017-01-01T11:45:10.392Z,16.27
2017-01-01T11:46:12.505Z,16.27
2017-01-01T11:47:13.091Z,16.28
2017-01-01T11:48:12.287Z,16.30
2017-01-01T11:49:13.081Z,15.65
2017-01-01T11:50:12.255Z,14.75
2017-01-01T11:51:13.719Z,13.89
2017-01-01T11:52:13.020Z,13.14
2017-01-01T11:53:13.164Z,12.63
2017-01-01T11:54:14.063Z,12.36
2017-01-01T11:55:12.927Z,12.18
2017-01-01T11:56:12.608Z,12.18
2017-01-01T11:57:14.588Z,12.64
2017-01-01T11:58:11.831Z,13.13
2017-01-01T11:59:11.783Z,13.59
2017-01-01T12:00:12.362Z,13.99
2017-01-01T12:01:12.253Z,14.29
2017-01-01T12:02:12.825Z,14.54
2017-01-01T12:03:11.973Z,14.75
2017-01-01T12:04:13.653Z,14.94
2017-01-01T12:05:10.809Z,15.02
2017-01-01T12:06:12.332Z,15.14
2017-01-01T12:07:14.826Z,15.23
2017-01-01T12:08:12.289Z,15.35
2017-01-01T12:09:14.805Z,15.36
2017-01-01T12:10:12.337Z,15.42
2017-01-01T12:11:12.804Z,15.51
2017-01-01T12:12:12.363Z,15.57
2017-01-01T12:13:13.449Z,15.54
2017-01-01T12:14:12.641Z,15.57
2017-01-01T12:15:12.443Z,15.60
2017-01-01T12:16:13.114Z,15.62
2017-01-01T12:17:13.027Z,15.64
2017-01-01T12:18:12.101Z,15.65
2017-01-01T12:19:12.607Z,15.70
2017-01-01T12:20:12.301Z,15.71
2017-01-01T12:21:13.983Z,15.68
2017-01-01T12:22:12.024Z,15.69
2017-01-01T12:23:12.622Z,15.70
2017-01-01T12:24:12.765Z,15.71
2017-01-01T12:25:12.667Z,15.71
2017-01-01T12:26:20.331Z,15.72
2017-01-01T12:27:12.388Z,15.73
2017-01-01T12:28:12.961Z,15.74
2017-01-01T12:29:12.338Z,15.78
2017-01-01T12:30:14.014Z,15.76
2017-01-01T12:31:12.038Z,15.77
2017-01-01T12:32:15.247Z,15.80
2017-01-01T12:33:12.681Z,15.78
2017-01-01T12:34:13.263Z,15.81
2017-01-01T12:35:12.945Z,15.78
2017-01-01T12:36:12.148Z,15.78
2017-01-01T12:37:15.102Z,15.79
2017-01-01T12:38:15.766Z,15.79
2017-01-01T12:39:12.841Z,15.79
2017-01-01T12:40:14.210Z,15.79
2017-01-01T12:41:15.708Z,15.83
2017-01-01T12:42:13.407Z,15.79
2017-01-01T12:43:15.718Z,15.79
2017-01-01T12:44:13.787Z,15.79
2017-01-01T12:45:13.663Z,15.79
2017-01-01T12:46:13.532Z,15.78
2017-01-01T12:47:14.657Z,15.78
2017-01-01T12:48:15.278Z,15.76
2017-01-01T12:49:14.569Z,15.77
2017-01-01T12:50:12.928Z,15.77
2017-01-01T12:51:15.133Z,15.77
2017-01-01T12:52:15.423Z,15.77